Terminal Aerodrome Forecast
Issued by NWS

Home | Current Version | Previous Version | Text Only | Print | Product List | Glossary On
Versions: 1 2 3 4 5 6 7 8 9 10 11 12
000
FTAK31 PAJN 222300
TAFAGY
TAF
PAGY 222335Z 2300/2324 21006KT P6SM BKN150
     FM230600 VRB03KT P6SM VCSH SCT050 OVC100
     FM231300 VRB03KT P6SM SCT050 BKN100
     FM232000 21008KT P6SM BKN100
      AMD LTD TO CLD VIS AND WIND=

USA.gov is the U.S. government's official web portal to all federal, state and local government web resources and services.